STAZIONE METEO DI BARCELLONA P.G. CENTRO
Dati campionati ogni minuto da Consolle Davis Vantage Pro 2
ed inviati alla rete mediante server Anemos WDS5 wview



Barcellona P.G. Ovest  Barcellona P.G. Ovest


Golfo di Patti  Golfo di Patti


Thunder radar more information blitzortung!


Rain radar  rain snow radar


altri nostri siti meteo:

Rete NOAA MADIS

Italia Meteo Network

Pomeziameteo

Albisolameteo



Temperature massime estreme Inizio validità dal: 24-07-2017 09:00 Fino: 18:59 Allerta per: Temperature massime estreme Livello: Arancione info button
english:
No Special Awareness Required

italiano:
Nessun Avviso 

Weather Underground Storia pagina Testo

Quotidiano Riepilogo per Luglio 24, 2017 Unità:  Metrico    Inglese   Entrambi
« Indietro Day
Avanti Day »
Quotidiano Settimanale mensile Annuale Personalizzato
  Attuale: Max: Min: Media:
Temperatura: 35.3 °C 36.8 °C 24.3 °C 29.1 °C
P.to Rugiada: 17.4 °C 22.7 °C 12.8 °C 16.7 °C
Umidità: 35 % 61 % 30 % 48 %
Vel. Vento: 12.9 km/h 12.9 km/h 0.0 km/h 2.3 km/h
Raffiche: 17.7 km/h 22.5 km/h - -
Vento:WSW - - SW
Pressione: 1008.4 hPa 1014.4 hPa 1007.7 hPa -
Precipitazioni: 0.0 mm      
Historical Graphs
 
 
Dati di tabella per il Luglio 24, 2017
Tempo Temperatura P.to Rugiada Pressione Vento Vel. Vento Raffiche Umidità Tasso delle precipitazioni (oraria) solare
00:00 26.3 °C 17.3 °C 1014.4 hPa Calm     58 % 0.0 mm 0 W/m2
00:05 26.3 °C 18.1 °C 1014.4 hPa Calm     61 % 0.0 mm 0 W/m2
00:10 26.3 °C 17.3 °C 1014.4 hPa Calm     58 % 0.0 mm 0 W/m2
00:15 26.3 °C 17.3 °C 1014.4 hPa Calm     58 % 0.0 mm 0 W/m2
00:20 26.3 °C 16.8 °C 1014.4 hPa Calm     56 % 0.0 mm 0 W/m2
00:25 26.2 °C 15.2 °C 1014.4 hPa ESE 1.6 km/h 6.4 km/h 51 % 0.0 mm 0 W/m2
00:30 26.1 °C 15.1 °C 1014.4 hPa Calm   4.8 km/h 51 % 0.0 mm 0 W/m2
00:35 25.9 °C 14.7 °C 1014.4 hPa ESE 1.6 km/h 8.0 km/h 50 % 0.0 mm 0 W/m2
00:40 25.8 °C 14.3 °C 1014.4 hPa Calm   1.6 km/h 49 % 0.0 mm 0 W/m2
00:45 25.8 °C 14.3 °C 1014.4 hPa Calm   3.2 km/h 49 % 0.0 mm 0 W/m2
00:50 25.8 °C 13.9 °C 1014.1 hPa ESE 4.8 km/h 6.4 km/h 48 % 0.0 mm 0 W/m2
00:55 25.7 °C 13.8 °C 1014.1 hPa ESE 4.8 km/h 12.9 km/h 48 % 0.0 mm 0 W/m2
01:00 25.6 °C 14.0 °C 1014.1 hPa ESE 6.4 km/h 11.3 km/h 49 % 0.0 mm 0 W/m2
01:05 25.5 °C 13.7 °C 1014.1 hPa Calm   6.4 km/h 48 % 0.0 mm 0 W/m2
01:10 25.5 °C 13.7 °C 1014.1 hPa ESE 12.9 km/h 12.9 km/h 48 % 0.0 mm 0 W/m2
01:15 25.3 °C 13.4 °C 1014.1 hPa ESE 1.6 km/h 12.9 km/h 48 % 0.0 mm 0 W/m2
01:20 25.2 °C 13.7 °C 1014.1 hPa Calm   4.8 km/h 49 % 0.0 mm 0 W/m2
01:25 25.3 °C 13.4 °C 1014.1 hPa Calm     48 % 0.0 mm 0 W/m2
01:30 25.3 °C 13.4 °C 1013.8 hPa ESE 6.4 km/h 14.5 km/h 48 % 0.0 mm 0 W/m2
01:35 25.1 °C 13.6 °C 1013.8 hPa ESE 1.6 km/h 11.3 km/h 49 % 0.0 mm 0 W/m2
01:40 25.1 °C 13.3 °C 1013.8 hPa ESE 1.6 km/h 6.4 km/h 48 % 0.0 mm 0 W/m2
01:45 25.2 °C 13.3 °C 1013.8 hPa ESE 4.8 km/h 6.4 km/h 48 % 0.0 mm 0 W/m2
01:50 25.1 °C 13.6 °C 1013.8 hPa ESE 3.2 km/h 12.9 km/h 49 % 0.0 mm 0 W/m2
01:55 24.9 °C 13.7 °C 1013.8 hPa SE 4.8 km/h 9.7 km/h 50 % 0.0 mm 0 W/m2
02:00 24.8 °C 13.3 °C 1013.4 hPa Calm   9.7 km/h 49 % 0.0 mm 0 W/m2
02:05 24.8 °C 13.3 °C 1013.4 hPa SE 4.8 km/h 6.4 km/h 49 % 0.0 mm 0 W/m2
02:10 24.8 °C 13.7 °C 1013.4 hPa Calm   6.4 km/h 50 % 0.0 mm 0 W/m2
02:15 24.9 °C 13.1 °C 1013.4 hPa Calm   4.8 km/h 48 % 0.0 mm 0 W/m2
02:20 24.9 °C 13.1 °C 1013.1 hPa Calm   6.4 km/h 48 % 0.0 mm 0 W/m2
02:25 25.0 °C 13.2 °C 1013.1 hPa Calm   4.8 km/h 48 % 0.0 mm 0 W/m2
02:30 25.0 °C 13.2 °C 1012.8 hPa Calm   8.0 km/h 48 % 0.0 mm 0 W/m2
02:35 25.0 °C 13.2 °C 1012.8 hPa SE 3.2 km/h 6.4 km/h 48 % 0.0 mm 0 W/m2
02:45 25.1 °C 13.2 °C 1012.4 hPa Calm   6.4 km/h 48 % 0.0 mm 0 W/m2
02:50 25.0 °C 12.9 °C 1012.4 hPa Calm   6.4 km/h 47 % 0.0 mm 0 W/m2
02:55 25.0 °C 12.9 °C 1012.4 hPa Calm     47 % 0.0 mm 0 W/m2
03:00 24.9 °C 12.8 °C 1012.4 hPa Calm   3.2 km/h 47 % 0.0 mm 0 W/m2
03:05 25.0 °C 12.9 °C 1012.4 hPa Calm     47 % 0.0 mm 0 W/m2
03:10 25.1 °C 13.3 °C 1012.8 hPa Calm   1.6 km/h 48 % 0.0 mm 0 W/m2
03:15 25.2 °C 13.7 °C 1013.1 hPa Calm     49 % 0.0 mm 0 W/m2
03:20 25.1 °C 13.9 °C 1012.8 hPa Calm     50 % 0.0 mm 0 W/m2
03:25 25.1 °C 13.3 °C 1013.1 hPa Calm     48 % 0.0 mm 0 W/m2
03:30 25.1 °C 13.2 °C 1013.1 hPa Calm     48 % 0.0 mm 0 W/m2
03:35 24.9 °C 13.1 °C 1013.8 hPa Calm     48 % 0.0 mm 0 W/m2
03:45 25.1 °C 13.2 °C 1013.8 hPa Calm     48 % 0.0 mm 0 W/m2
03:50 25.1 °C 13.2 °C 1013.8 hPa Calm     48 % 0.0 mm 0 W/m2
03:55 24.9 °C 13.1 °C 1013.8 hPa Calm   3.2 km/h 48 % 0.0 mm 0 W/m2
04:00 24.9 °C 13.4 °C 1013.8 hPa Calm     49 % 0.0 mm 0 W/m2
04:05 24.8 °C 13.3 °C 1013.8 hPa Calm     49 % 0.0 mm 0 W/m2
04:10 24.8 °C 13.0 °C 1013.8 hPa Calm   1.6 km/h 48 % 0.0 mm 0 W/m2
04:15 24.8 °C 13.3 °C 1013.8 hPa Calm   6.4 km/h 49 % 0.0 mm 0 W/m2
04:20 24.8 °C 13.3 °C 1013.8 hPa Calm     49 % 0.0 mm 0 W/m2
04:25 24.8 °C 13.3 °C 1013.8 hPa Calm     49 % 0.0 mm 0 W/m2
04:35 24.8 °C 13.3 °C 1013.8 hPa Calm     49 % 0.0 mm 0 W/m2
04:40 24.8 °C 13.3 °C 1013.8 hPa Calm     49 % 0.0 mm 0 W/m2
04:45 24.7 °C 13.2 °C 1013.8 hPa Calm   8.0 km/h 49 % 0.0 mm 0 W/m2
04:55 24.7 °C 13.2 °C 1014.1 hPa Calm   8.0 km/h 49 % 0.0 mm 0 W/m2
05:00 24.8 °C 13.3 °C 1013.8 hPa Calm   9.7 km/h 49 % 0.0 mm 0 W/m2
05:05 24.7 °C 13.2 °C 1013.8 hPa SE 8.0 km/h 11.3 km/h 49 % 0.0 mm 0 W/m2
05:10 24.7 °C 13.2 °C 1013.8 hPa SE 8.0 km/h 8.0 km/h 49 % 0.0 mm 0 W/m2
05:15 24.6 °C 13.4 °C 1013.8 hPa Calm   12.9 km/h 50 % 0.0 mm 0 W/m2
05:20 24.6 °C 13.4 °C 1013.4 hPa Calm   3.2 km/h 50 % 0.0 mm 0 W/m2
05:25 24.6 °C 13.4 °C 1013.4 hPa Calm   8.0 km/h 50 % 0.0 mm 0 W/m2
05:30 24.6 °C 13.7 °C 1013.4 hPa Calm   8.0 km/h 51 % 0.0 mm 0 W/m2
05:35 24.6 °C 13.7 °C 1013.4 hPa SE 3.2 km/h 9.7 km/h 51 % 0.0 mm 0 W/m2
05:40 24.4 °C 13.9 °C 1013.1 hPa Calm   9.7 km/h 52 % 0.0 mm 0 W/m2
05:50 24.4 °C 14.2 °C 1013.1 hPa Calm   4.8 km/h 53 % 0.0 mm 0 W/m2
05:55 24.4 °C 14.4 °C 1013.1 hPa Calm   1.6 km/h 54 % 0.0 mm 0 W/m2
06:00 24.4 °C 14.5 °C 1013.1 hPa Calm   1.6 km/h 54 % 0.0 mm 0 W/m2
06:05 24.4 °C 14.4 °C 1013.1 hPa SE 1.6 km/h 4.8 km/h 54 % 0.0 mm 7 W/m2
06:10 24.3 °C 14.7 °C 1013.1 hPa Calm   8.0 km/h 55 % 0.0 mm 12 W/m2
06:15 24.3 °C 14.9 °C 1013.1 hPa SE 3.2 km/h 8.0 km/h 56 % 0.0 mm 18 W/m2
06:20 24.3 °C 14.9 °C 1012.8 hPa SE 1.6 km/h 9.7 km/h 56 % 0.0 mm 28 W/m2
06:25 24.3 °C 15.2 °C 1012.8 hPa Calm   9.7 km/h 57 % 0.0 mm 35 W/m2
06:30 24.3 °C 15.2 °C 1012.8 hPa Calm   3.2 km/h 57 % 0.0 mm 35 W/m2
06:35 24.3 °C 15.2 °C 1012.8 hPa SE 3.2 km/h 9.7 km/h 57 % 0.0 mm 30 W/m2
06:50 24.5 °C 15.4 °C 1012.1 hPa Calm   6.4 km/h 57 % 0.0 mm 49 W/m2
06:55 24.5 °C 15.1 °C 1012.1 hPa Calm   12.9 km/h 56 % 0.0 mm 65 W/m2
07:00 24.4 °C 15.3 °C 1012.1 hPa SE 6.4 km/h 8.0 km/h 57 % 0.0 mm 93 W/m2
07:05 24.5 °C 15.4 °C 1011.7 hPa Calm   8.0 km/h 57 % 0.0 mm 107 W/m2
07:10 24.7 °C 15.6 °C 1011.7 hPa Calm   8.0 km/h 57 % 0.0 mm 121 W/m2
07:15 24.7 °C 15.6 °C 1011.4 hPa Calm   9.7 km/h 57 % 0.0 mm 141 W/m2
07:20 24.7 °C 15.6 °C 1011.7 hPa Calm   6.4 km/h 57 % 0.0 mm 156 W/m2
07:30 25.1 °C 16.2 °C 1011.4 hPa Calm     58 % 0.0 mm 193 W/m2
07:35 25.4 °C 16.3 °C 1011.1 hPa Calm     57 % 0.0 mm 206 W/m2
07:40 25.6 °C 16.2 °C 1011.1 hPa Calm   3.2 km/h 56 % 0.0 mm 223 W/m2
07:45 25.8 °C 16.3 °C 1011.1 hPa Calm   1.6 km/h 56 % 0.0 mm 232 W/m2
07:50 26.1 °C 16.3 °C 1011.1 hPa Calm     55 % 0.0 mm 246 W/m2
07:55 26.5 °C 16.4 °C 1011.1 hPa Calm     54 % 0.0 mm 255 W/m2
08:00 26.9 °C 16.8 °C 1011.1 hPa Calm     54 % 0.0 mm 243 W/m2
08:05 27.2 °C 16.8 °C 1011.1 hPa Calm     53 % 0.0 mm 301 W/m2
08:10 27.3 °C 17.4 °C 1010.7 hPa Calm     55 % 0.0 mm 315 W/m2
08:15 27.2 °C 17.6 °C 1010.7 hPa Calm   6.4 km/h 56 % 0.0 mm 327 W/m2
08:20 27.2 °C 17.9 °C 1010.7 hPa Calm   1.6 km/h 57 % 0.0 mm 338 W/m2
08:25 27.4 °C 18.1 °C 1010.7 hPa Calm   3.2 km/h 57 % 0.0 mm 357 W/m2
08:30 27.8 °C 18.2 °C 1010.4 hPa Calm     56 % 0.0 mm 369 W/m2
08:40 28.4 °C 16.6 °C 1010.4 hPa Calm     49 % 0.0 mm 413 W/m2
08:45 28.7 °C 16.8 °C 1010.4 hPa Calm     49 % 0.0 mm 431 W/m2
08:50 29.1 °C 16.9 °C 1010.4 hPa ESE 1.6 km/h 4.8 km/h 48 % 0.0 mm 427 W/m2
08:55 29.2 °C 17.0 °C 1010.4 hPa Calm   3.2 km/h 48 % 0.0 mm 441 W/m2
09:00 29.3 °C 16.4 °C 1010.4 hPa ESE 1.6 km/h 4.8 km/h 46 % 0.0 mm 457 W/m2
09:05 29.4 °C 16.5 °C 1010.4 hPa ESE 3.2 km/h 3.2 km/h 46 % 0.0 mm 450 W/m2
09:10 29.6 °C 16.4 °C 1010.0 hPa Calm   4.8 km/h 45 % 0.0 mm 490 W/m2
09:15 29.8 °C 16.5 °C 1010.0 hPa Calm   3.2 km/h 45 % 0.0 mm 499 W/m2
09:20 29.9 °C 16.3 °C 1009.7 hPa Calm     44 % 0.0 mm 512 W/m2
09:25 30.2 °C 16.5 °C 1009.7 hPa Calm     44 % 0.0 mm 524 W/m2
09:30 30.3 °C 16.6 °C 1009.7 hPa Calm   3.2 km/h 44 % 0.0 mm 543 W/m2
09:40 30.8 °C 16.3 °C 1009.4 hPa Calm   3.2 km/h 42 % 0.0 mm 566 W/m2
09:45 31.1 °C 15.8 °C 1009.4 hPa NE 1.6 km/h 4.8 km/h 40 % 0.0 mm 448 W/m2
09:50 31.2 °C 16.3 °C 1009.4 hPa Calm   3.2 km/h 41 % 0.0 mm 554 W/m2
09:55 31.5 °C 17.0 °C 1009.4 hPa Calm     42 % 0.0 mm 557 W/m2
10:00 31.8 °C 17.2 °C 1009.0 hPa North 3.2 km/h 6.4 km/h 42 % 0.0 mm 617 W/m2
10:05 31.8 °C 17.3 °C 1009.0 hPa Calm   6.4 km/h 42 % 0.0 mm 480 W/m2
10:15 32.1 °C 18.3 °C 1009.0 hPa NNW 6.4 km/h 8.0 km/h 44 % 0.0 mm 445 W/m2
10:20 32.1 °C 19.9 °C 1009.0 hPa NNE 6.4 km/h 9.7 km/h 49 % 0.0 mm 671 W/m2
10:25 32.0 °C 21.8 °C 1008.7 hPa North 6.4 km/h 11.3 km/h 55 % 0.0 mm 670 W/m2
10:30 31.9 °C 22.0 °C 1008.7 hPa NW 9.7 km/h 9.7 km/h 56 % 0.0 mm 687 W/m2
10:35 31.7 °C 22.6 °C 1008.7 hPa NNW 6.4 km/h 12.9 km/h 59 % 0.0 mm 698 W/m2
10:40 31.6 °C 22.5 °C 1008.7 hPa Calm   12.9 km/h 59 % 0.0 mm 701 W/m2
10:45 31.4 °C 22.7 °C 1008.7 hPa North 9.7 km/h 12.9 km/h 60 % 0.0 mm 715 W/m2
10:50 31.5 °C 22.7 °C 1008.7 hPa NNW 3.2 km/h 11.3 km/h 60 % 0.0 mm 714 W/m2
10:55 31.8 °C 22.4 °C 1008.7 hPa NNW 1.6 km/h 9.7 km/h 58 % 0.0 mm 712 W/m2
11:00 31.8 °C 22.5 °C 1008.4 hPa North 3.2 km/h 8.0 km/h 58 % 0.0 mm 712 W/m2
11:05 31.9 °C 22.6 °C 1008.4 hPa NNW 4.8 km/h 11.3 km/h 58 % 0.0 mm 715 W/m2
11:10 32.2 °C 22.5 °C 1008.4 hPa NNW 9.7 km/h 11.3 km/h 57 % 0.0 mm 722 W/m2
11:20 32.7 °C 22.4 °C 1008.4 hPa NNW 4.8 km/h 8.0 km/h 55 % 0.0 mm 737 W/m2
11:25 32.9 °C 21.4 °C 1008.4 hPa NNW 3.2 km/h 16.1 km/h 51 % 0.0 mm 759 W/m2
11:30 32.9 °C 21.4 °C 1008.7 hPa NW 4.8 km/h 12.9 km/h 51 % 0.0 mm 796 W/m2
11:35 32.8 °C 21.0 °C 1009.0 hPa NW 4.8 km/h 16.1 km/h 50 % 0.0 mm 795 W/m2
11:40 32.6 °C 20.4 °C 1009.0 hPa NW 9.7 km/h 22.5 km/h 49 % 0.0 mm 677 W/m2
11:45 32.4 °C 19.9 °C 1009.0 hPa WNW 8.0 km/h 14.5 km/h 48 % 0.0 mm 751 W/m2
11:50 32.3 °C 19.5 °C 1009.4 hPa NW 3.2 km/h 12.9 km/h 47 % 0.0 mm 761 W/m2
11:55 32.4 °C 19.6 °C 1009.4 hPa WNW 8.0 km/h 8.0 km/h 47 % 0.0 mm 761 W/m2
12:00 32.6 °C 19.4 °C 1009.0 hPa Calm   8.0 km/h 46 % 0.0 mm 791 W/m2
12:05 32.9 °C 19.7 °C 1009.0 hPa WNW 3.2 km/h 4.8 km/h 46 % 0.0 mm 578 W/m2
12:10 33.3 °C 20.4 °C 1009.0 hPa Calm   8.0 km/h 47 % 0.0 mm 846 W/m2
12:15 33.2 °C 20.3 °C 1009.0 hPa WSW 3.2 km/h 8.0 km/h 47 % 0.0 mm 840 W/m2
12:20 33.2 °C 20.6 °C 1009.0 hPa Calm   6.4 km/h 48 % 0.0 mm 724 W/m2
12:25 33.5 °C 20.9 °C 1009.0 hPa WSW 1.6 km/h 6.4 km/h 48 % 0.0 mm 812 W/m2
12:30 33.8 °C 20.9 °C 1008.7 hPa WSW 3.2 km/h 4.8 km/h 47 % 0.0 mm 835 W/m2
12:35 33.9 °C 20.9 °C 1008.7 hPa WSW 1.6 km/h 8.0 km/h 47 % 0.0 mm 835 W/m2
12:40 34.0 °C 21.1 °C 1008.7 hPa WNW 1.6 km/h 11.3 km/h 47 % 0.0 mm 835 W/m2
12:45 34.1 °C 21.1 °C 1008.7 hPa WNW 4.8 km/h 11.3 km/h 47 % 0.0 mm 784 W/m2
12:50 34.1 °C 20.8 °C 1008.7 hPa West 1.6 km/h 8.0 km/h 46 % 0.0 mm 819 W/m2
12:55 34.3 °C 21.0 °C 1008.7 hPa West 8.0 km/h 8.0 km/h 46 % 0.0 mm 846 W/m2
13:00 34.3 °C 20.6 °C 1008.7 hPa West 3.2 km/h 9.7 km/h 45 % 0.0 mm 840 W/m2
13:05 34.6 °C 20.9 °C 1008.7 hPa Calm   6.4 km/h 45 % 0.0 mm 828 W/m2
13:10 34.7 °C 20.6 °C 1008.4 hPa West 9.7 km/h 14.5 km/h 44 % 0.0 mm 696 W/m2
13:15 34.3 °C 20.2 °C 1008.4 hPa WNW 4.8 km/h 14.5 km/h 44 % 0.0 mm 795 W/m2
13:20 34.2 °C 20.6 °C 1008.4 hPa WNW 8.0 km/h 14.5 km/h 45 % 0.0 mm 654 W/m2
13:25 33.9 °C 20.2 °C 1008.4 hPa WNW 4.8 km/h 11.3 km/h 45 % 0.0 mm 680 W/m2
13:30 33.8 °C 20.2 °C 1008.4 hPa SW 3.2 km/h 11.3 km/h 45 % 0.0 mm 842 W/m2
13:35 33.8 °C 20.2 °C 1008.4 hPa Calm   11.3 km/h 45 % 0.0 mm 747 W/m2
13:40 33.8 °C 20.2 °C 1008.4 hPa West 6.4 km/h 9.7 km/h 45 % 0.0 mm 868 W/m2
13:45 33.8 °C 20.1 °C 1008.0 hPa Calm   9.7 km/h 45 % 0.0 mm 826 W/m2
13:50 33.9 °C 20.3 °C 1008.0 hPa WNW 3.2 km/h 4.8 km/h 45 % 0.0 mm 853 W/m2
13:55 34.4 °C 20.3 °C 1008.0 hPa Calm   6.4 km/h 44 % 0.0 mm 831 W/m2
14:00 34.5 °C 20.4 °C 1008.0 hPa WNW 4.8 km/h 8.0 km/h 44 % 0.0 mm 821 W/m2
14:05 34.7 °C 20.6 °C 1008.0 hPa Calm   4.8 km/h 44 % 0.0 mm 809 W/m2
14:10 35.3 °C 20.3 °C 1008.0 hPa Calm   8.0 km/h 42 % 0.0 mm 793 W/m2
14:15 35.5 °C 20.6 °C 1007.7 hPa West 1.6 km/h 3.2 km/h 42 % 0.0 mm 782 W/m2
14:20 35.7 °C 20.3 °C 1007.7 hPa Calm   9.7 km/h 41 % 0.0 mm 772 W/m2
14:25 35.9 °C 20.2 °C 1007.7 hPa WNW 3.2 km/h 6.4 km/h 40 % 0.0 mm 768 W/m2
14:30 36.2 °C 20.3 °C 1007.7 hPa WNW 3.2 km/h 4.8 km/h 40 % 0.0 mm 758 W/m2
14:35 36.5 °C 19.8 °C 1007.7 hPa WSW 1.6 km/h 11.3 km/h 38 % 0.0 mm 754 W/m2
14:40 36.7 °C 19.6 °C 1007.7 hPa WSW 3.2 km/h 9.7 km/h 37 % 0.0 mm 747 W/m2
14:45 36.8 °C 20.1 °C 1007.7 hPa NW 1.6 km/h 11.3 km/h 38 % 0.0 mm 740 W/m2
14:50 36.6 °C 18.1 °C 1007.7 hPa SW 3.2 km/h 19.3 km/h 34 % 0.0 mm 735 W/m2
14:55 36.6 °C 18.1 °C 1007.7 hPa West 9.7 km/h 14.5 km/h 34 % 0.0 mm 726 W/m2
15:00 36.6 °C 17.7 °C 1007.7 hPa WSW 3.2 km/h 14.5 km/h 33 % 0.0 mm 712 W/m2
15:05 36.6 °C 17.6 °C 1007.7 hPa WNW 4.8 km/h 12.9 km/h 33 % 0.0 mm 708 W/m2
15:10 36.4 °C 17.5 °C 1007.7 hPa SSW 6.4 km/h 9.7 km/h 33 % 0.0 mm 698 W/m2
15:15 36.3 °C 16.9 °C 1007.7 hPa WSW 6.4 km/h 11.3 km/h 32 % 0.0 mm 689 W/m2
15:20 36.4 °C 16.6 °C 1007.7 hPa SSW 8.0 km/h 14.5 km/h 31 % 0.0 mm 680 W/m2
15:25 36.1 °C 16.2 °C 1007.7 hPa West 1.6 km/h 14.5 km/h 31 % 0.0 mm 671 W/m2
15:30 36.2 °C 16.3 °C 1008.0 hPa SSW 6.4 km/h 16.1 km/h 31 % 0.0 mm 663 W/m2
15:35 36.1 °C 15.7 °C 1008.0 hPa SW 8.0 km/h 16.1 km/h 30 % 0.0 mm 654 W/m2
16:00 35.7 °C 15.4 °C 1008.0 hPa SW 4.8 km/h 12.9 km/h 30 % 0.0 mm 591 W/m2
16:05 35.6 °C 16.3 °C 1008.0 hPa WSW 3.2 km/h 17.7 km/h 32 % 0.0 mm 577 W/m2
16:10 35.5 °C 16.7 °C 1008.0 hPa Calm   17.7 km/h 33 % 0.0 mm 566 W/m2
16:15 35.4 °C 16.7 °C 1008.4 hPa West 4.8 km/h 17.7 km/h 33 % 0.0 mm 554 W/m2
16:20 35.3 °C 17.0 °C 1008.4 hPa WNW 12.9 km/h 17.7 km/h 34 % 0.0 mm 540 W/m2
16:25 35.3 °C 17.5 °C 1008.4 hPa Calm   11.3 km/h 35 % 0.0 mm 527 W/m2
16:30 35.3 °C 17.4 °C 1008.4 hPa WSW 12.9 km/h 17.7 km/h 35 % 0.0 mm 515 W/m2
Stazione meteo di Barcellona P.G. real time
complimenti di Weather Underground - 3.75 mb

Script sviluppato da  Jim McMurry - jmcmurry@mwt.net Adattato per il modello da  Wim van der Kuil - Leuven-Template.eu

Potete trovare le nostre info meteo anche a:

European Weather Network

Weather Underground

AWEKAS

Citizen Weather Observer Program (CWOP)

HAMweather, WeatherForYou, PWS Weather

Strumentazione usata:

Stazione meteo
Davis VP2

Programma gestore dati meteo
WVIEW

Server per i dati meteo
WDS5 Ecoblack

Davis VP2

WVIEW

WDS5 Ecoblack